createdAt,value
2019-05-14T00:00:53.531Z,0.00
2019-05-14T00:01:53.513Z,0.00
2019-05-14T00:02:53.525Z,0.00
2019-05-14T00:03:53.502Z,0.00
2019-05-14T00:04:53.496Z,0.00
2019-05-14T00:05:53.478Z,0.00
2019-05-14T00:06:53.467Z,0.00
2019-05-14T00:07:53.465Z,0.00
2019-05-14T00:08:53.434Z,0.00
2019-05-14T00:09:53.450Z,0.00
2019-05-14T00:10:53.462Z,0.00
2019-05-14T00:11:53.419Z,0.00
2019-05-14T00:12:53.389Z,0.00
2019-05-14T00:13:53.386Z,0.00
2019-05-14T00:14:53.413Z,0.00
2019-05-14T00:15:53.365Z,0.00
2019-05-14T00:16:53.356Z,0.00
2019-05-14T00:17:53.350Z,0.00
2019-05-14T00:18:53.339Z,0.00
2019-05-14T00:20:06.322Z,0.00
2019-05-14T00:20:54.307Z,0.00
2019-05-14T00:21:53.315Z,0.00
2019-05-14T00:22:53.283Z,0.00
2019-05-14T00:23:53.290Z,0.00
2019-05-14T00:24:53.283Z,0.00
2019-05-14T00:25:53.259Z,0.00
2019-05-14T00:26:53.248Z,0.00
2019-05-14T00:27:53.229Z,0.00
2019-05-14T00:28:53.227Z,0.00
2019-05-14T00:29:53.232Z,0.00
2019-05-14T00:30:53.208Z,0.00
2019-05-14T00:31:53.189Z,0.00
2019-05-14T00:32:53.169Z,0.00
2019-05-14T00:33:53.160Z,0.00
2019-05-14T00:34:53.164Z,0.00
2019-05-14T00:35:53.142Z,0.00
2019-05-14T00:36:53.149Z,0.00
2019-05-14T00:37:53.124Z,0.00
2019-05-14T00:38:53.122Z,0.00
2019-05-14T00:39:53.108Z,0.00
2019-05-14T00:40:53.084Z,0.00
2019-05-14T00:41:53.075Z,0.00
2019-05-14T00:42:53.432Z,0.00
2019-05-14T00:43:53.064Z,0.00
2019-05-14T00:44:57.713Z,0.00
2019-05-14T00:45:53.054Z,0.00
2019-05-14T00:46:53.016Z,0.00
2019-05-14T00:47:53.017Z,0.00
2019-05-14T00:48:53.004Z,0.00
2019-05-14T00:49:53.010Z,0.00
2019-05-14T00:50:53.003Z,0.00
2019-05-14T00:51:52.978Z,0.00
2019-05-14T00:52:52.948Z,0.00
2019-05-14T00:53:52.952Z,0.00
2019-05-14T00:54:52.935Z,0.00
2019-05-14T00:55:52.917Z,0.00
2019-05-14T00:56:52.918Z,0.00
2019-05-14T00:57:52.912Z,0.00
2019-05-14T00:58:52.885Z,0.00
2019-05-14T00:59:52.887Z,0.00
2019-05-14T01:00:52.875Z,0.00
2019-05-14T01:01:52.864Z,0.00
2019-05-14T01:02:52.852Z,0.00
2019-05-14T01:03:52.841Z,0.00
2019-05-14T01:04:52.842Z,0.00
2019-05-14T01:05:52.809Z,0.00
2019-05-14T01:06:52.813Z,0.00
2019-05-14T01:07:52.792Z,0.00
2019-05-14T01:08:52.793Z,0.00
2019-05-14T01:09:52.795Z,0.00
2019-05-14T01:10:52.766Z,0.00
2019-05-14T01:11:52.752Z,0.00
2019-05-14T01:12:52.757Z,0.00
2019-05-14T01:13:52.720Z,0.00
2019-05-14T01:15:06.674Z,0.00
2019-05-14T01:15:53.712Z,0.00
2019-05-14T01:16:52.688Z,0.00
2019-05-14T01:17:52.682Z,0.00
2019-05-14T01:18:52.687Z,0.00
2019-05-14T01:19:52.686Z,0.00
2019-05-14T01:20:52.681Z,0.00
2019-05-14T01:21:52.643Z,0.00
2019-05-14T01:22:52.631Z,0.00
2019-05-14T01:23:52.624Z,0.00
2019-05-14T01:24:52.607Z,0.00
2019-05-14T01:25:52.598Z,0.00
2019-05-14T01:26:52.574Z,0.00
2019-05-14T01:27:52.572Z,0.00
2019-05-14T01:28:52.566Z,0.00
2019-05-14T01:29:52.569Z,0.00
2019-05-14T01:30:52.530Z,0.00
2019-05-14T01:31:52.531Z,0.00
2019-05-14T01:32:52.527Z,0.00
2019-05-14T01:33:52.516Z,0.00
2019-05-14T01:34:52.530Z,0.00
2019-05-14T01:35:52.491Z,0.00
2019-05-14T01:36:53.022Z,0.00
2019-05-14T01:37:52.462Z,0.00
2019-05-14T01:38:52.445Z,0.00
2019-05-14T01:39:52.456Z,0.00
2019-05-14T01:40:52.721Z,0.00
2019-05-14T01:41:52.423Z,0.00
2019-05-14T01:42:52.466Z,0.00
2019-05-14T01:43:52.391Z,0.00
2019-05-14T01:44:52.377Z,0.00
2019-05-14T01:45:52.636Z,0.00
2019-05-14T01:46:52.373Z,0.00
2019-05-14T01:47:52.360Z,0.00
2019-05-14T01:48:52.340Z,0.00
2019-05-14T01:49:52.321Z,0.00
2019-05-14T01:50:52.331Z,0.00
2019-05-14T01:51:52.301Z,0.00
2019-05-14T01:52:52.299Z,0.00
2019-05-14T01:53:52.291Z,0.00
2019-05-14T01:54:52.280Z,0.00
2019-05-14T01:55:52.293Z,0.00
2019-05-14T01:56:52.252Z,0.00
2019-05-14T01:57:52.235Z,0.00
2019-05-14T01:58:52.446Z,0.00
2019-05-14T01:59:52.219Z,0.00
2019-05-14T02:00:52.517Z,0.00
2019-05-14T02:01:52.202Z,0.00
2019-05-14T02:02:52.433Z,0.00
2019-05-14T02:03:52.170Z,0.00
2019-05-14T02:04:52.181Z,0.00
2019-05-14T02:05:52.289Z,0.00
2019-05-14T02:06:52.148Z,0.00
2019-05-14T02:07:52.661Z,0.00
2019-05-14T02:08:52.119Z,0.00
2019-05-14T02:09:52.104Z,0.00
2019-05-14T02:10:52.769Z,0.00
2019-05-14T02:11:52.089Z,0.00
2019-05-14T02:12:52.077Z,0.00
2019-05-14T02:13:52.076Z,0.00
2019-05-14T02:14:52.065Z,0.00
2019-05-14T02:15:52.250Z,0.00
2019-05-14T02:16:52.038Z,0.00
2019-05-14T02:17:52.028Z,0.00
2019-05-14T02:18:52.351Z,0.00
2019-05-14T02:19:52.017Z,0.00
2019-05-14T02:20:52.303Z,0.00
2019-05-14T02:21:51.978Z,0.00
2019-05-14T02:22:52.556Z,0.00
2019-05-14T02:23:51.958Z,0.00
2019-05-14T02:24:52.168Z,0.00
2019-05-14T02:25:52.023Z,0.00
2019-05-14T02:26:51.936Z,0.00
2019-05-14T02:27:52.098Z,0.00
2019-05-14T02:28:51.900Z,0.00
2019-05-14T02:29:52.098Z,0.00
2019-05-14T02:30:57.677Z,0.00
2019-05-14T02:31:52.860Z,0.00
2019-05-14T02:32:51.867Z,0.00
2019-05-14T02:33:51.864Z,0.00
2019-05-14T02:34:51.830Z,0.00
2019-05-14T02:35:51.833Z,0.00
2019-05-14T02:36:51.810Z,0.00
2019-05-14T02:37:51.800Z,0.00
2019-05-14T02:38:51.809Z,0.00
2019-05-14T02:39:51.791Z,0.00
2019-05-14T02:40:51.777Z,0.00
2019-05-14T02:41:51.757Z,0.00
2019-05-14T02:42:51.743Z,0.00
2019-05-14T02:43:51.734Z,0.00
2019-05-14T02:44:51.732Z,0.00
2019-05-14T02:46:09.739Z,0.00
2019-05-14T02:46:52.729Z,0.00
2019-05-14T02:47:51.702Z,0.00
2019-05-14T02:48:51.680Z,0.00
2019-05-14T02:49:51.668Z,0.00
2019-05-14T02:50:51.683Z,0.00
2019-05-14T02:51:51.652Z,0.00
2019-05-14T02:52:51.648Z,0.00
2019-05-14T02:53:51.639Z,0.00
2019-05-14T02:54:51.613Z,0.00
2019-05-14T02:55:51.610Z,0.00
2019-05-14T02:56:51.595Z,0.00
2019-05-14T02:57:51.599Z,0.00
2019-05-14T02:58:51.584Z,0.00
2019-05-14T02:59:51.571Z,0.00
2019-05-14T03:00:51.572Z,0.00
2019-05-14T03:01:51.551Z,0.00
2019-05-14T03:02:51.525Z,0.00
2019-05-14T03:03:51.521Z,0.00
2019-05-14T03:04:51.521Z,0.00
2019-05-14T03:05:51.517Z,5.62
2019-05-14T03:06:51.481Z,5.62
2019-05-14T03:07:51.470Z,5.62
2019-05-14T03:08:51.471Z,5.62
2019-05-14T03:09:51.461Z,5.62
2019-05-14T03:10:51.456Z,5.62
2019-05-14T03:11:51.431Z,5.62
2019-05-14T03:12:51.430Z,5.62
2019-05-14T03:13:51.401Z,5.62
2019-05-14T03:14:51.408Z,11.25
2019-05-14T03:15:51.408Z,11.25
2019-05-14T03:16:51.375Z,11.25
2019-05-14T03:17:51.368Z,11.25
2019-05-14T03:18:51.366Z,11.25
2019-05-14T03:19:51.355Z,11.25
2019-05-14T03:20:51.328Z,16.88
2019-05-14T03:21:51.331Z,16.88
2019-05-14T03:23:03.120Z,16.88
2019-05-14T03:23:52.305Z,16.88
2019-05-14T03:24:51.307Z,16.88
2019-05-14T03:25:51.263Z,22.50
2019-05-14T03:26:51.275Z,22.50
2019-05-14T03:27:51.248Z,22.50
2019-05-14T03:28:51.250Z,22.50
2019-05-14T03:29:51.237Z,28.12
2019-05-14T03:30:52.852Z,28.12
2019-05-14T03:31:53.073Z,28.12
2019-05-14T03:32:52.863Z,33.75
2019-05-14T03:33:52.725Z,33.75
2019-05-14T03:34:53.435Z,39.38
2019-05-14T03:35:58.860Z,39.38
2019-05-14T03:36:53.405Z,45.00
2019-05-14T03:37:51.170Z,45.00
2019-05-14T03:38:51.126Z,45.00
2019-05-14T03:39:51.114Z,50.62
2019-05-14T03:40:51.111Z,50.62
2019-05-14T03:41:51.123Z,50.62
2019-05-14T03:42:51.088Z,56.25
2019-05-14T03:43:51.081Z,56.25
2019-05-14T03:44:51.066Z,61.88
2019-05-14T03:45:51.075Z,61.88
2019-05-14T03:46:55.489Z,61.88
2019-05-14T03:47:52.020Z,67.50
2019-05-14T03:48:51.024Z,67.50
2019-05-14T03:49:51.013Z,67.50
2019-05-14T03:50:51.002Z,67.50
2019-05-14T03:51:51.011Z,67.50
2019-05-14T03:52:50.991Z,73.12
2019-05-14T03:54:00.951Z,73.12
2019-05-14T03:54:51.970Z,73.12
2019-05-14T03:55:50.950Z,78.75
2019-05-14T03:56:50.948Z,78.75
2019-05-14T03:57:50.935Z,78.75
2019-05-14T03:58:50.899Z,78.75
2019-05-14T03:59:50.974Z,78.75
2019-05-14T04:00:51.167Z,84.38
2019-05-14T04:01:51.378Z,84.38
2019-05-14T04:02:50.879Z,84.38
2019-05-14T04:03:50.864Z,84.38
2019-05-14T04:04:50.838Z,78.75
2019-05-14T04:05:50.824Z,78.75
2019-05-14T04:06:50.820Z,90.00
2019-05-14T04:07:50.809Z,95.62
2019-05-14T04:08:50.799Z,101.25
2019-05-14T04:09:50.794Z,101.25
2019-05-14T04:10:54.305Z,106.88
2019-05-14T04:11:50.764Z,106.88
2019-05-14T04:12:50.750Z,112.50
2019-05-14T04:13:50.753Z,112.50
2019-05-14T04:14:50.750Z,112.50
2019-05-14T04:15:50.728Z,118.12
2019-05-14T04:17:01.376Z,118.12
2019-05-14T04:17:51.712Z,118.12
2019-05-14T04:18:50.751Z,123.75
2019-05-14T04:19:50.700Z,123.75
2019-05-14T04:20:50.681Z,123.75
2019-05-14T04:21:50.689Z,129.38
2019-05-14T04:22:50.658Z,129.38
2019-05-14T04:23:51.412Z,129.38
2019-05-14T04:24:50.622Z,135.00
2019-05-14T04:25:50.617Z,135.00
2019-05-14T04:27:02.336Z,135.00
2019-05-14T04:27:51.606Z,140.62
2019-05-14T04:28:50.645Z,140.62
2019-05-14T04:29:50.561Z,146.25
2019-05-14T04:30:50.551Z,146.25
2019-05-14T04:31:50.570Z,146.25
2019-05-14T04:32:50.917Z,151.88
2019-05-14T04:33:50.522Z,151.88
2019-05-14T04:34:50.507Z,151.88
2019-05-14T04:35:50.499Z,157.50
2019-05-14T04:36:50.710Z,157.50
2019-05-14T04:37:50.511Z,157.50
2019-05-14T04:38:54.889Z,163.12
2019-05-14T04:39:50.816Z,163.12
2019-05-14T04:40:50.447Z,163.12
2019-05-14T04:41:50.438Z,168.75
2019-05-14T04:42:50.694Z,168.75
2019-05-14T04:43:50.593Z,168.75
2019-05-14T04:44:50.898Z,174.38
2019-05-14T04:45:50.393Z,174.38
2019-05-14T04:46:50.379Z,174.38
2019-05-14T04:47:50.377Z,174.38
2019-05-14T04:48:51.143Z,174.38
2019-05-14T04:49:50.826Z,180.00
2019-05-14T04:50:50.347Z,185.62
2019-05-14T04:51:50.595Z,191.25
2019-05-14T04:52:50.321Z,191.25
2019-05-14T04:53:50.604Z,191.25
2019-05-14T04:54:50.428Z,196.88
2019-05-14T04:55:50.272Z,208.12
2019-05-14T04:56:50.988Z,225.00
2019-05-14T04:57:50.406Z,270.00
2019-05-14T04:58:50.593Z,354.38
2019-05-14T04:59:50.241Z,427.50
2019-05-14T05:00:50.291Z,472.50
2019-05-14T05:01:50.224Z,461.25
2019-05-14T05:02:50.281Z,528.75
2019-05-14T05:03:50.796Z,641.25
2019-05-14T05:04:50.994Z,613.12
2019-05-14T05:05:50.294Z,579.38
2019-05-14T05:06:50.272Z,528.75
2019-05-14T05:07:50.163Z,213.75
2019-05-14T05:08:50.396Z,236.25
2019-05-14T05:09:50.558Z,275.62
2019-05-14T05:10:50.125Z,326.25
2019-05-14T05:11:50.270Z,405.00
2019-05-14T05:12:50.099Z,646.88
2019-05-14T05:13:50.078Z,450.00
2019-05-14T05:14:50.081Z,309.38
2019-05-14T05:15:50.065Z,286.88
2019-05-14T05:16:50.053Z,247.50
2019-05-14T05:17:53.061Z,236.25
2019-05-14T05:18:50.018Z,241.88
2019-05-14T05:19:51.448Z,241.88
2019-05-14T05:20:50.784Z,241.88
2019-05-14T05:21:50.015Z,241.88
2019-05-14T05:22:49.997Z,247.50
2019-05-14T05:23:49.985Z,247.50
2019-05-14T05:24:49.954Z,253.12
2019-05-14T05:25:49.964Z,292.50
2019-05-14T05:26:49.934Z,303.75
2019-05-14T05:27:49.935Z,286.88
2019-05-14T05:29:02.374Z,371.25
2019-05-14T05:29:50.908Z,641.25
2019-05-14T05:30:49.904Z,877.50
2019-05-14T05:31:49.882Z,961.88
2019-05-14T05:32:49.894Z,1057.50
2019-05-14T05:33:49.865Z,1102.50
2019-05-14T05:34:49.851Z,1141.88
2019-05-14T05:35:49.836Z,1192.50
2019-05-14T05:36:49.816Z,1181.25
2019-05-14T05:37:49.823Z,1198.12
2019-05-14T05:38:49.794Z,1158.75
2019-05-14T05:39:49.786Z,1170.00
2019-05-14T05:40:49.805Z,1215.00
2019-05-14T05:41:49.778Z,1192.50
2019-05-14T05:42:49.758Z,1215.00
2019-05-14T05:43:49.760Z,1096.88
2019-05-14T05:44:49.738Z,1057.50
2019-05-14T05:45:49.738Z,618.75
2019-05-14T05:46:49.724Z,517.50
2019-05-14T05:47:57.902Z,871.88
2019-05-14T05:48:50.701Z,815.62
2019-05-14T05:49:49.682Z,877.50
2019-05-14T05:50:49.667Z,725.62
2019-05-14T05:51:49.671Z,646.88
2019-05-14T05:52:53.470Z,607.50
2019-05-14T05:53:49.653Z,596.25
2019-05-14T05:54:49.635Z,607.50
2019-05-14T05:55:49.623Z,675.00
2019-05-14T05:56:49.602Z,461.25
2019-05-14T05:57:49.583Z,579.38
2019-05-14T05:58:49.578Z,534.38
2019-05-14T05:59:49.578Z,478.12
2019-05-14T06:00:49.921Z,776.25
2019-05-14T06:01:50.418Z,511.88
2019-05-14T06:02:49.536Z,556.88
2019-05-14T06:03:49.628Z,624.38
2019-05-14T06:04:49.526Z,511.88
2019-05-14T06:05:49.510Z,365.62
2019-05-14T06:06:49.502Z,421.88
2019-05-14T06:07:49.486Z,483.75
2019-05-14T06:08:49.609Z,596.25
2019-05-14T06:09:49.457Z,663.75
2019-05-14T06:10:49.448Z,1018.12
2019-05-14T06:11:49.438Z,714.38
2019-05-14T06:12:49.432Z,630.00
2019-05-14T06:13:49.440Z,517.50
2019-05-14T06:14:49.423Z,455.62
2019-05-14T06:15:52.300Z,433.12
2019-05-14T06:16:49.376Z,399.38
2019-05-14T06:17:49.420Z,337.50
2019-05-14T06:18:49.373Z,405.00
2019-05-14T06:19:49.352Z,455.62
2019-05-14T06:20:49.598Z,466.88
2019-05-14T06:21:49.344Z,466.88
2019-05-14T06:22:49.325Z,511.88
2019-05-14T06:23:49.567Z,556.88
2019-05-14T06:24:49.314Z,596.25
2019-05-14T06:25:49.411Z,883.12
2019-05-14T06:26:49.272Z,978.75
2019-05-14T06:27:49.263Z,900.00
2019-05-14T06:28:49.819Z,1833.75
2019-05-14T06:29:49.241Z,1395.00
2019-05-14T06:30:49.219Z,2210.62
2019-05-14T06:31:49.650Z,1777.50
2019-05-14T06:32:49.209Z,2396.25
2019-05-14T06:33:49.215Z,2255.62
2019-05-14T06:34:49.220Z,2289.38
2019-05-14T06:35:49.225Z,2227.50
2019-05-14T06:36:49.174Z,2086.88
2019-05-14T06:37:49.172Z,2261.25
2019-05-14T06:38:49.751Z,2317.50
2019-05-14T06:39:49.143Z,2120.62
2019-05-14T06:40:49.161Z,2205.00
2019-05-14T06:41:49.201Z,1906.88
2019-05-14T06:42:49.096Z,680.62
2019-05-14T06:43:49.124Z,427.50
2019-05-14T06:44:49.460Z,416.25
2019-05-14T06:45:49.698Z,292.50
2019-05-14T06:46:52.568Z,500.62
2019-05-14T06:47:49.040Z,2441.25
2019-05-14T06:48:49.087Z,2446.88
2019-05-14T06:49:49.082Z,2441.25
2019-05-14T06:50:50.397Z,922.50
2019-05-14T06:51:49.200Z,2452.50
2019-05-14T06:52:49.319Z,2311.88
2019-05-14T06:53:49.836Z,2272.50
2019-05-14T06:54:49.580Z,1957.50
2019-05-14T06:55:48.951Z,894.38
2019-05-14T06:56:49.005Z,1580.62
2019-05-14T06:57:48.932Z,1040.62
2019-05-14T06:58:49.327Z,832.50
2019-05-14T06:59:48.916Z,900.00
2019-05-14T07:00:49.486Z,933.75
2019-05-14T07:01:49.123Z,1051.88
2019-05-14T07:02:49.276Z,731.25
2019-05-14T07:03:49.307Z,821.25
2019-05-14T07:04:48.869Z,793.12
2019-05-14T07:05:49.327Z,1265.62
2019-05-14T07:06:48.826Z,1096.88
2019-05-14T07:07:49.502Z,1350.00
2019-05-14T07:08:52.155Z,1001.25
2019-05-14T07:09:49.018Z,1479.38
2019-05-14T07:10:48.796Z,2272.50
2019-05-14T07:11:49.305Z,1074.38
2019-05-14T07:12:49.886Z,2379.38
2019-05-14T07:13:49.285Z,922.50
2019-05-14T07:14:48.769Z,1254.38
2019-05-14T07:15:49.144Z,1046.25
2019-05-14T07:16:48.733Z,928.12
2019-05-14T07:17:48.945Z,984.38
2019-05-14T07:18:52.925Z,1063.12
2019-05-14T07:19:49.697Z,1648.12
2019-05-14T07:20:48.702Z,2227.50
2019-05-14T07:21:49.307Z,1265.62
2019-05-14T07:22:48.693Z,849.38
2019-05-14T07:23:49.121Z,635.62
2019-05-14T07:24:49.790Z,641.25
2019-05-14T07:25:48.640Z,765.00
2019-05-14T07:26:49.338Z,793.12
2019-05-14T07:27:49.073Z,1153.12
2019-05-14T07:28:49.056Z,871.88
2019-05-14T07:29:49.171Z,663.75
2019-05-14T07:30:48.802Z,646.88
2019-05-14T07:31:49.064Z,888.75
2019-05-14T07:32:48.595Z,905.62
2019-05-14T07:33:49.539Z,562.50
2019-05-14T07:34:48.523Z,703.12
2019-05-14T07:35:48.945Z,1006.88
2019-05-14T07:36:49.088Z,1254.38
2019-05-14T07:37:48.928Z,703.12
2019-05-14T07:38:49.191Z,1215.00
2019-05-14T07:39:48.885Z,1485.00
2019-05-14T07:40:49.398Z,1485.00
2019-05-14T07:41:48.608Z,1074.38
2019-05-14T07:42:48.820Z,1411.88
2019-05-14T07:43:48.578Z,1029.38
2019-05-14T07:44:48.684Z,810.00
2019-05-14T07:45:49.198Z,933.75
2019-05-14T07:46:48.501Z,720.00
2019-05-14T07:47:49.331Z,506.25
2019-05-14T07:49:03.957Z,613.12
2019-05-14T07:49:49.384Z,573.75
2019-05-14T07:50:51.883Z,455.62
2019-05-14T07:51:48.379Z,348.75
2019-05-14T07:52:49.719Z,410.62
2019-05-14T07:53:48.928Z,545.62
2019-05-14T07:54:48.347Z,579.38
2019-05-14T07:55:49.294Z,590.62
2019-05-14T07:56:50.911Z,393.75
2019-05-14T07:57:48.334Z,551.25
2019-05-14T07:58:49.160Z,601.88
2019-05-14T07:59:48.556Z,568.12
2019-05-14T08:00:49.164Z,573.75
2019-05-14T08:01:49.139Z,545.62
2019-05-14T08:02:49.108Z,545.62
2019-05-14T08:03:48.861Z,573.75
2019-05-14T08:04:48.744Z,517.50
2019-05-14T08:05:48.434Z,478.12
2019-05-14T08:06:48.715Z,455.62
2019-05-14T08:07:48.216Z,410.62
2019-05-14T08:08:49.249Z,388.12
2019-05-14T08:09:48.234Z,388.12
2019-05-14T08:10:48.690Z,489.38
2019-05-14T08:11:48.209Z,618.75
2019-05-14T08:12:48.610Z,1012.50
2019-05-14T08:13:49.427Z,742.50
2019-05-14T08:15:09.463Z,877.50
2019-05-14T08:15:49.162Z,871.88
2019-05-14T08:16:48.930Z,956.25
2019-05-14T08:17:48.374Z,950.62
2019-05-14T08:18:48.725Z,1164.38
2019-05-14T08:19:49.191Z,2458.12
2019-05-14T08:20:48.688Z,978.75
2019-05-14T08:21:48.224Z,1625.62
2019-05-14T08:22:49.032Z,1451.25
2019-05-14T08:23:48.286Z,2070.00
2019-05-14T08:24:48.917Z,3251.25
2019-05-14T08:25:48.265Z,804.38
2019-05-14T08:26:48.655Z,680.62
2019-05-14T08:27:48.314Z,770.62
2019-05-14T08:28:48.820Z,905.62
2019-05-14T08:29:48.742Z,736.88
2019-05-14T08:30:49.089Z,680.62
2019-05-14T08:31:48.832Z,911.25
2019-05-14T08:32:48.952Z,2626.88
2019-05-14T08:33:48.952Z,1102.50
2019-05-14T08:34:48.165Z,1119.38
2019-05-14T08:35:48.816Z,871.88
2019-05-14T08:36:48.312Z,776.25
2019-05-14T08:37:49.227Z,793.12
2019-05-14T08:38:49.969Z,1648.12
2019-05-14T08:39:48.619Z,4027.50
2019-05-14T08:40:48.923Z,2345.62
2019-05-14T08:41:55.985Z,686.25
2019-05-14T08:42:49.084Z,675.00
2019-05-14T08:43:48.916Z,624.38
2019-05-14T08:44:51.047Z,568.12
2019-05-14T08:45:48.728Z,517.50
2019-05-14T08:46:48.691Z,455.62
2019-05-14T08:47:48.282Z,388.12
2019-05-14T08:48:49.587Z,388.12
2019-05-14T08:49:50.817Z,365.62
2019-05-14T08:50:48.148Z,315.00
2019-05-14T08:51:49.476Z,365.62
2019-05-14T08:52:48.356Z,433.12
2019-05-14T08:53:50.448Z,495.00
2019-05-14T08:54:50.577Z,540.00
2019-05-14T08:55:48.981Z,630.00
2019-05-14T08:56:49.071Z,3318.75
2019-05-14T08:57:48.881Z,3881.25
2019-05-14T08:58:49.456Z,3740.62
2019-05-14T08:59:48.592Z,3560.62
2019-05-14T09:00:48.253Z,3825.00
2019-05-14T09:01:58.578Z,4657.50
2019-05-14T09:02:48.754Z,4370.62
2019-05-14T09:03:49.136Z,4786.88
2019-05-14T09:04:53.984Z,703.12
2019-05-14T09:05:49.196Z,489.38
2019-05-14T09:06:48.943Z,444.38
2019-05-14T09:07:49.031Z,753.75
2019-05-14T09:08:49.651Z,590.62
2019-05-14T09:09:48.910Z,686.25
2019-05-14T09:10:49.745Z,900.00
2019-05-14T09:11:50.275Z,3397.50
2019-05-14T09:12:49.083Z,3543.75
2019-05-14T09:13:49.084Z,3453.75
2019-05-14T09:14:48.378Z,1181.25
2019-05-14T09:15:48.916Z,1327.50
2019-05-14T09:16:50.926Z,3847.50
2019-05-14T09:17:48.583Z,748.12
2019-05-14T09:18:49.167Z,675.00
2019-05-14T09:20:01.132Z,607.50
2019-05-14T09:20:48.960Z,461.25
2019-05-14T09:21:49.583Z,388.12
2019-05-14T09:22:49.008Z,466.88
2019-05-14T09:23:48.241Z,691.88
2019-05-14T09:24:49.105Z,855.00
2019-05-14T09:25:52.357Z,967.50
2019-05-14T09:26:48.456Z,888.75
2019-05-14T09:27:49.250Z,826.88
2019-05-14T09:28:48.333Z,866.25
2019-05-14T09:29:48.416Z,3487.50
2019-05-14T09:30:48.739Z,1305.00
2019-05-14T09:31:49.433Z,2941.88
2019-05-14T09:32:49.292Z,1721.25
2019-05-14T09:33:49.390Z,2058.75
2019-05-14T09:34:48.648Z,3684.38
2019-05-14T09:35:49.359Z,3453.75
2019-05-14T09:36:48.860Z,810.00
2019-05-14T09:37:51.007Z,939.38
2019-05-14T09:38:49.120Z,1496.25
2019-05-14T09:39:48.783Z,4111.88
2019-05-14T09:40:48.937Z,3161.25
2019-05-14T09:41:48.194Z,2666.25
2019-05-14T09:42:49.852Z,2390.62
2019-05-14T09:43:48.738Z,3436.88
2019-05-14T09:44:49.025Z,1479.38
2019-05-14T09:45:48.175Z,804.38
2019-05-14T09:46:47.079Z,928.12
2019-05-14T09:47:50.324Z,995.62
2019-05-14T09:48:48.630Z,3819.38
2019-05-14T09:49:49.065Z,3870.00
2019-05-14T09:50:48.996Z,3403.12
2019-05-14T09:51:48.905Z,3245.62
2019-05-14T09:52:49.218Z,1918.12
2019-05-14T09:53:49.043Z,1344.38
2019-05-14T09:54:49.375Z,1957.50
2019-05-14T09:55:49.021Z,4483.12
2019-05-14T09:56:48.532Z,4134.38
2019-05-14T09:57:48.996Z,1265.62
2019-05-14T09:58:49.237Z,590.62
2019-05-14T09:59:47.968Z,455.62
2019-05-14T10:00:48.567Z,416.25
2019-05-14T10:01:50.424Z,405.00
2019-05-14T10:02:49.329Z,433.12
2019-05-14T10:03:49.351Z,478.12
2019-05-14T10:04:48.977Z,528.75
2019-05-14T10:05:46.894Z,596.25
2019-05-14T10:06:48.489Z,871.88
2019-05-14T10:07:49.249Z,815.62
2019-05-14T10:08:48.567Z,815.62
2019-05-14T10:09:49.065Z,2295.00
2019-05-14T10:10:48.876Z,3791.25
2019-05-14T10:11:48.655Z,826.88
2019-05-14T10:12:54.072Z,781.88
2019-05-14T10:13:48.409Z,843.75
2019-05-14T10:14:48.696Z,1080.00
2019-05-14T10:15:48.618Z,1080.00
2019-05-14T10:16:49.108Z,1220.62
2019-05-14T10:17:49.744Z,1051.88
2019-05-14T10:18:49.022Z,990.00
2019-05-14T10:19:49.517Z,877.50
2019-05-14T10:20:49.240Z,1215.00
2019-05-14T10:21:49.202Z,984.38
2019-05-14T10:22:48.237Z,1091.25
2019-05-14T10:23:46.679Z,1569.38
2019-05-14T10:24:46.669Z,1288.12
2019-05-14T10:25:46.647Z,1051.88
2019-05-14T10:26:49.016Z,1023.75
2019-05-14T10:27:48.540Z,984.38
2019-05-14T10:28:48.451Z,821.25
2019-05-14T10:29:48.282Z,646.88
2019-05-14T10:30:48.949Z,506.25
2019-05-14T10:31:48.595Z,399.38
2019-05-14T10:32:49.040Z,315.00
2019-05-14T10:33:48.502Z,264.38
2019-05-14T10:34:48.511Z,275.62
2019-05-14T10:35:48.415Z,354.38
2019-05-14T10:36:46.538Z,438.75
2019-05-14T10:37:46.516Z,534.38
2019-05-14T10:38:46.498Z,641.25
2019-05-14T10:39:46.492Z,731.25
2019-05-14T10:40:46.484Z,787.50
2019-05-14T10:41:46.485Z,900.00
2019-05-14T10:42:49.269Z,990.00
2019-05-14T10:43:49.322Z,770.62
2019-05-14T10:44:46.432Z,826.88
2019-05-14T10:45:49.199Z,1080.00
2019-05-14T10:46:46.429Z,1338.75
2019-05-14T10:47:46.397Z,4246.88
2019-05-14T10:48:46.401Z,4483.12
2019-05-14T10:49:46.390Z,753.75
2019-05-14T10:50:59.023Z,517.50
2019-05-14T10:51:47.975Z,399.38
2019-05-14T10:52:48.942Z,348.75
2019-05-14T10:53:48.974Z,371.25
2019-05-14T10:54:55.492Z,455.62
2019-05-14T10:55:48.600Z,562.50
2019-05-14T10:56:49.279Z,658.12
2019-05-14T10:57:46.283Z,736.88
2019-05-14T10:58:48.895Z,860.62
2019-05-14T10:59:46.293Z,3436.88
2019-05-14T11:00:46.284Z,2711.25
2019-05-14T11:01:46.266Z,928.12
2019-05-14T11:02:46.246Z,984.38
2019-05-14T11:03:48.438Z,3335.62
2019-05-14T11:04:48.362Z,1271.25
2019-05-14T11:05:48.175Z,4618.12
2019-05-14T11:06:46.218Z,4331.25
2019-05-14T11:07:48.233Z,2570.62
2019-05-14T11:08:46.166Z,1181.25
2019-05-14T11:09:48.434Z,843.75
2019-05-14T11:10:46.154Z,731.25
2019-05-14T11:11:46.150Z,646.88
2019-05-14T11:12:46.145Z,607.50
2019-05-14T11:13:46.135Z,573.75
2019-05-14T11:14:46.115Z,545.62
2019-05-14T11:15:48.449Z,556.88
2019-05-14T11:16:48.400Z,596.25
2019-05-14T11:17:48.507Z,641.25
2019-05-14T11:18:49.274Z,691.88
2019-05-14T11:19:47.847Z,725.62
2019-05-14T11:20:51.089Z,798.75
2019-05-14T11:21:48.432Z,877.50
2019-05-14T11:22:48.937Z,945.00
2019-05-14T11:23:46.016Z,1051.88
2019-05-14T11:24:46.010Z,1051.88
2019-05-14T11:25:45.996Z,1366.88
2019-05-14T11:26:48.543Z,1406.25
2019-05-14T11:27:45.986Z,3082.50
2019-05-14T11:28:48.805Z,4803.75
2019-05-14T11:29:45.953Z,1766.25
2019-05-14T11:30:45.935Z,3290.62
2019-05-14T11:31:48.269Z,3830.62
2019-05-14T11:32:45.915Z,1524.38
2019-05-14T11:33:45.918Z,1113.75
2019-05-14T11:34:45.900Z,697.50
2019-05-14T11:35:45.895Z,506.25
2019-05-14T11:36:45.892Z,388.12
2019-05-14T11:37:47.876Z,303.75
2019-05-14T11:38:45.859Z,253.12
2019-05-14T11:39:45.840Z,241.88
2019-05-14T11:40:45.833Z,247.50
2019-05-14T11:41:45.832Z,270.00
2019-05-14T11:42:45.803Z,303.75
2019-05-14T11:43:48.952Z,331.88
2019-05-14T11:44:45.798Z,343.12
2019-05-14T11:45:48.300Z,354.38
2019-05-14T11:46:52.171Z,360.00
2019-05-14T11:47:48.794Z,365.62
2019-05-14T11:48:48.742Z,382.50
2019-05-14T11:49:45.719Z,421.88
2019-05-14T11:50:45.708Z,495.00
2019-05-14T11:52:00.757Z,573.75
2019-05-14T11:52:48.405Z,630.00
2019-05-14T11:53:45.698Z,585.00
2019-05-14T11:54:45.669Z,506.25
2019-05-14T11:55:45.673Z,416.25
2019-05-14T11:56:48.146Z,348.75
2019-05-14T11:57:45.665Z,309.38
2019-05-14T11:58:45.635Z,281.25
2019-05-14T11:59:45.626Z,270.00
2019-05-14T12:00:45.605Z,270.00
2019-05-14T12:01:45.599Z,275.62
2019-05-14T12:02:45.605Z,298.12
2019-05-14T12:03:45.571Z,320.62
2019-05-14T12:04:45.568Z,360.00
2019-05-14T12:05:45.561Z,388.12
2019-05-14T12:06:45.547Z,410.62
2019-05-14T12:07:45.549Z,450.00
2019-05-14T12:08:45.524Z,483.75
2019-05-14T12:09:45.503Z,534.38
2019-05-14T12:10:45.509Z,596.25
2019-05-14T12:11:45.489Z,658.12
2019-05-14T12:12:45.485Z,725.62
2019-05-14T12:13:45.458Z,838.12
2019-05-14T12:14:45.453Z,871.88
2019-05-14T12:15:45.437Z,945.00
2019-05-14T12:16:45.440Z,978.75
2019-05-14T12:17:45.454Z,1113.75
2019-05-14T12:18:45.418Z,793.12
2019-05-14T12:19:45.398Z,691.88
2019-05-14T12:20:45.387Z,495.00
2019-05-14T12:22:02.259Z,393.75
2019-05-14T12:22:48.662Z,320.62
2019-05-14T12:23:45.402Z,292.50
2019-05-14T12:24:45.349Z,292.50
2019-05-14T12:25:45.333Z,303.75
2019-05-14T12:26:45.315Z,320.62
2019-05-14T12:27:45.318Z,331.88
2019-05-14T12:28:45.305Z,354.38
2019-05-14T12:29:45.300Z,365.62
2019-05-14T12:30:45.279Z,405.00
2019-05-14T12:31:45.281Z,444.38
2019-05-14T12:32:45.266Z,455.62
2019-05-14T12:33:45.243Z,461.25
2019-05-14T12:34:45.232Z,478.12
2019-05-14T12:35:45.223Z,506.25
2019-05-14T12:36:45.223Z,551.25
2019-05-14T12:37:45.224Z,590.62